createdAt,value
2018-05-24T00:02:01.320Z,17.00
2018-05-24T00:04:28.818Z,17.00
2018-05-24T00:06:56.652Z,16.90
2018-05-24T00:09:24.141Z,16.90
2018-05-24T00:11:51.633Z,16.90
2018-05-24T00:14:20.638Z,16.90
2018-05-24T00:16:48.203Z,16.90
2018-05-24T00:19:17.193Z,16.80
2018-05-24T00:21:44.698Z,16.80
2018-05-24T00:24:12.238Z,16.90
2018-05-24T00:26:40.588Z,16.80
2018-05-24T00:29:10.197Z,16.80
2018-05-24T00:31:37.715Z,16.80
2018-05-24T00:34:05.625Z,16.70
2018-05-24T00:36:33.143Z,16.70
2018-05-24T00:39:00.646Z,16.60
2018-05-24T00:41:28.143Z,16.60
2018-05-24T00:43:55.621Z,16.60
2018-05-24T00:46:23.997Z,16.60
2018-05-24T00:48:52.239Z,16.50
2018-05-24T00:51:19.749Z,16.50
2018-05-24T00:53:49.280Z,16.50
2018-05-24T00:56:17.876Z,16.50
2018-05-24T00:58:45.374Z,16.50
2018-05-24T01:01:13.653Z,16.40
2018-05-24T01:03:41.324Z,16.40
2018-05-24T01:06:09.619Z,16.40
2018-05-24T01:08:37.130Z,16.40
2018-05-24T01:11:04.685Z,16.40
2018-05-24T01:13:32.438Z,16.30
2018-05-24T01:16:00.273Z,16.40
2018-05-24T01:18:30.196Z,16.30
2018-05-24T01:20:58.510Z,16.30
2018-05-24T01:23:26.880Z,16.20
2018-05-24T01:25:55.128Z,16.20
2018-05-24T01:28:24.736Z,16.20
2018-05-24T01:30:53.153Z,16.20
2018-05-24T01:33:21.538Z,16.20
2018-05-24T01:35:49.866Z,16.20
2018-05-24T01:38:17.382Z,16.20
2018-05-24T01:40:46.628Z,16.10
2018-05-24T01:43:16.218Z,16.10
2018-05-24T01:45:43.754Z,16.10
2018-05-24T01:48:12.053Z,16.00
2018-05-24T01:50:40.976Z,16.00
2018-05-24T01:53:08.474Z,16.00
2018-05-24T01:55:36.751Z,16.00
2018-05-24T01:58:04.808Z,16.00
2018-05-24T02:00:32.302Z,15.90
2018-05-24T02:03:00.785Z,15.90
2018-05-24T02:05:28.387Z,15.90
2018-05-24T02:07:55.899Z,15.80
2018-05-24T02:10:23.387Z,15.80
2018-05-24T02:12:50.908Z,15.80
2018-05-24T02:15:18.489Z,15.70
2018-05-24T02:17:46.049Z,15.70
2018-05-24T02:20:14.168Z,15.70
2018-05-24T02:22:42.447Z,15.60
2018-05-24T02:25:11.459Z,15.70
2018-05-24T02:27:39.753Z,15.60
2018-05-24T02:30:08.501Z,15.60
2018-05-24T02:32:36.311Z,15.60
2018-05-24T02:35:03.809Z,15.60
2018-05-24T02:37:31.915Z,15.60
2018-05-24T02:39:59.399Z,15.60
2018-05-24T02:42:26.887Z,15.50
2018-05-24T02:44:54.489Z,15.50
2018-05-24T02:47:22.088Z,15.50
2018-05-24T02:49:50.380Z,15.50
2018-05-24T02:52:18.090Z,15.40
2018-05-24T02:54:46.232Z,15.50
2018-05-24T02:57:15.063Z,15.50
2018-05-24T02:59:42.568Z,15.40
2018-05-24T03:02:12.937Z,15.40
2018-05-24T03:04:41.239Z,15.40
2018-05-24T03:07:08.738Z,15.40
2018-05-24T03:09:36.881Z,15.50
2018-05-24T03:12:04.363Z,15.40
2018-05-24T03:14:31.860Z,15.40
2018-05-24T03:16:59.795Z,15.40
2018-05-24T03:19:27.295Z,15.40
2018-05-24T03:21:54.779Z,15.40
2018-05-24T03:24:22.439Z,15.40
2018-05-24T03:26:49.962Z,15.40
2018-05-24T03:29:18.353Z,15.50
2018-05-24T03:31:46.609Z,15.50
2018-05-24T03:34:14.491Z,15.50
2018-05-24T03:36:42.113Z,15.50
2018-05-24T03:39:09.615Z,15.60
2018-05-24T03:41:37.533Z,15.60
2018-05-24T03:44:05.095Z,15.60
2018-05-24T03:46:33.143Z,15.60
2018-05-24T03:49:01.418Z,15.70
2018-05-24T03:51:28.923Z,15.70
2018-05-24T03:53:56.553Z,15.70
2018-05-24T03:56:24.809Z,15.80
2018-05-24T03:59:01.323Z,15.80
2018-05-24T04:01:40.605Z,15.90
2018-05-24T04:04:20.135Z,15.90
2018-05-24T04:06:47.632Z,16.00
2018-05-24T04:09:15.959Z,16.10
2018-05-24T04:11:43.683Z,16.00
2018-05-24T04:14:11.193Z,16.10
2018-05-24T04:16:38.881Z,16.10
2018-05-24T04:19:06.398Z,16.20
2018-05-24T04:21:34.597Z,16.20
2018-05-24T04:24:02.101Z,16.30
2018-05-24T04:26:29.614Z,16.30
2018-05-24T04:28:57.148Z,16.40
2018-05-24T04:31:25.401Z,16.40
2018-05-24T04:33:52.902Z,16.40
2018-05-24T04:36:21.304Z,16.50
2018-05-24T04:38:48.832Z,16.50
2018-05-24T04:41:16.317Z,16.60
2018-05-24T04:43:45.621Z,16.70
2018-05-24T04:46:14.051Z,16.90
2018-05-24T04:48:41.644Z,16.80
2018-05-24T04:51:09.237Z,17.10
2018-05-24T04:53:36.768Z,17.40
2018-05-24T04:56:04.451Z,18.00
2018-05-24T04:58:32.723Z,19.20
2018-05-24T05:01:00.638Z,19.20
2018-05-24T05:03:28.121Z,19.60
2018-05-24T05:05:55.700Z,19.90
2018-05-24T05:08:23.193Z,20.40
2018-05-24T05:10:51.491Z,20.60
2018-05-24T05:13:19.055Z,20.60
2018-05-24T05:15:46.568Z,20.60
2018-05-24T05:18:14.298Z,20.70
2018-05-24T05:20:41.914Z,21.00
2018-05-24T05:23:09.792Z,20.90
2018-05-24T05:25:37.234Z,20.90
2018-05-24T05:28:05.355Z,20.70
2018-05-24T05:30:33.880Z,20.60
2018-05-24T05:33:01.432Z,20.60
2018-05-24T05:35:28.931Z,20.70
2018-05-24T05:37:56.546Z,21.20
2018-05-24T05:40:24.127Z,21.60
2018-05-24T05:42:51.694Z,21.50
2018-05-24T05:45:19.398Z,21.30
2018-05-24T05:47:47.007Z,20.90
2018-05-24T05:50:15.286Z,20.50
2018-05-24T05:52:42.853Z,20.50
2018-05-24T05:55:10.759Z,20.80
2018-05-24T05:57:38.246Z,21.20
2018-05-24T06:00:05.796Z,21.30
2018-05-24T06:02:33.319Z,20.90
2018-05-24T06:05:00.821Z,20.70
2018-05-24T06:07:28.331Z,20.50
2018-05-24T06:09:56.619Z,20.40
2018-05-24T06:12:25.658Z,20.20
2018-05-24T06:14:53.208Z,20.20
2018-05-24T06:17:21.840Z,20.40
2018-05-24T06:19:49.450Z,20.80
2018-05-24T06:22:16.991Z,21.10
2018-05-24T06:24:45.288Z,20.70
2018-05-24T06:27:12.837Z,20.80
2018-05-24T06:29:40.428Z,20.50
2018-05-24T06:32:07.912Z,20.40
2018-05-24T06:34:35.639Z,20.40
2018-05-24T06:37:03.199Z,20.40
2018-05-24T06:39:31.588Z,20.80
2018-05-24T06:41:59.276Z,20.80
2018-05-24T06:44:26.868Z,20.90
2018-05-24T06:46:54.522Z,21.00
2018-05-24T06:49:22.033Z,20.90
2018-05-24T06:51:49.596Z,20.90
2018-05-24T06:54:18.735Z,20.60
2018-05-24T06:56:46.243Z,20.60
2018-05-24T06:59:13.793Z,20.60
2018-05-24T07:01:41.695Z,20.90
2018-05-24T07:04:11.225Z,21.60
2018-05-24T07:06:40.090Z,21.90
2018-05-24T07:09:07.805Z,21.80
2018-05-24T07:11:35.337Z,22.20
2018-05-24T07:14:03.058Z,22.50
2018-05-24T07:16:30.589Z,22.50
2018-05-24T07:18:59.221Z,22.60
2018-05-24T07:21:26.751Z,23.00
2018-05-24T07:23:54.236Z,23.30
2018-05-24T07:26:21.853Z,23.30
2018-05-24T07:28:50.119Z,23.70
2018-05-24T07:31:17.627Z,23.60
2018-05-24T07:33:45.676Z,23.50
2018-05-24T07:36:14.018Z,23.30
2018-05-24T07:38:41.540Z,23.20
2018-05-24T07:41:09.119Z,23.30
2018-05-24T07:43:36.800Z,23.20
2018-05-24T07:46:04.322Z,22.80
2018-05-24T07:48:33.406Z,22.50
2018-05-24T07:51:01.664Z,22.70
2018-05-24T07:53:29.182Z,22.70
2018-05-24T07:55:56.686Z,22.90
2018-05-24T07:58:24.311Z,22.80
2018-05-24T08:00:51.819Z,22.70
2018-05-24T08:03:19.296Z,22.70
2018-05-24T08:05:47.719Z,22.70
2018-05-24T08:08:15.220Z,22.80
2018-05-24T08:10:42.950Z,22.80
2018-05-24T08:13:10.425Z,22.70
2018-05-24T08:15:39.536Z,22.60
2018-05-24T08:18:07.050Z,22.50
2018-05-24T08:20:35.490Z,22.00
2018-05-24T08:23:04.670Z,22.00
2018-05-24T08:25:33.030Z,21.90
2018-05-24T08:28:01.178Z,21.90
2018-05-24T08:30:28.693Z,21.80
2018-05-24T08:32:56.792Z,21.90
2018-05-24T08:35:24.287Z,21.90
2018-05-24T08:37:52.695Z,21.80
2018-05-24T08:40:20.947Z,21.80
2018-05-24T08:42:48.544Z,21.80
2018-05-24T08:45:16.800Z,21.90
2018-05-24T08:47:44.332Z,21.90
2018-05-24T08:50:12.221Z,22.10
2018-05-24T08:52:39.815Z,22.20
2018-05-24T08:55:07.523Z,22.20
2018-05-24T08:57:35.052Z,22.30
2018-05-24T09:00:02.739Z,22.30
2018-05-24T09:02:30.376Z,22.40
2018-05-24T09:04:58.664Z,22.40
2018-05-24T09:07:26.199Z,22.40
2018-05-24T09:09:53.706Z,22.50
2018-05-24T09:12:21.225Z,22.40
2018-05-24T09:14:48.876Z,22.30
2018-05-24T09:17:16.482Z,22.30
2018-05-24T09:19:44.038Z,22.30
2018-05-24T09:22:12.340Z,22.30
2018-05-24T09:24:40.056Z,22.40
2018-05-24T09:27:07.824Z,22.40
2018-05-24T09:29:36.589Z,22.50
2018-05-24T09:32:04.107Z,22.60
2018-05-24T09:34:32.929Z,22.60
2018-05-24T09:37:00.537Z,22.60
2018-05-24T09:39:28.025Z,22.70
2018-05-24T09:41:56.315Z,22.80
2018-05-24T09:44:25.166Z,22.90
2018-05-24T09:46:53.386Z,23.00
2018-05-24T09:49:22.716Z,22.90
2018-05-24T09:51:50.438Z,22.90
2018-05-24T09:54:18.381Z,22.80
2018-05-24T09:56:46.754Z,22.80
2018-05-24T09:59:14.308Z,22.80
2018-05-24T10:01:41.963Z,22.70
2018-05-24T10:04:10.210Z,22.70
2018-05-24T10:06:38.706Z,22.70
2018-05-24T10:09:07.073Z,22.80
2018-05-24T10:11:34.614Z,22.80
2018-05-24T10:14:02.155Z,22.90
2018-05-24T10:16:29.712Z,22.90
2018-05-24T10:18:57.428Z,22.90
2018-05-24T10:21:25.226Z,23.10
2018-05-24T10:23:53.499Z,23.60
2018-05-24T10:26:21.018Z,23.60
2018-05-24T10:28:48.724Z,23.80
2018-05-24T10:31:16.231Z,23.80
2018-05-24T10:33:43.726Z,23.70
2018-05-24T10:36:11.336Z,23.60
2018-05-24T10:38:39.844Z,23.90
2018-05-24T10:41:07.344Z,23.90
2018-05-24T10:43:35.601Z,24.00
2018-05-24T10:46:03.140Z,24.00
2018-05-24T10:48:30.916Z,24.10
2018-05-24T10:50:59.312Z,24.00
2018-05-24T10:53:26.860Z,23.90
2018-05-24T10:55:55.748Z,24.00
2018-05-24T10:58:24.053Z,24.40
2018-05-24T11:00:52.219Z,24.40
2018-05-24T11:03:19.768Z,24.40
2018-05-24T11:05:48.063Z,24.40
2018-05-24T11:08:15.619Z,24.40
2018-05-24T11:10:43.261Z,24.50
2018-05-24T11:13:11.539Z,24.20
2018-05-24T11:15:39.827Z,24.20
2018-05-24T11:18:08.101Z,24.20
2018-05-24T11:20:36.124Z,24.20
2018-05-24T11:23:03.652Z,24.30
2018-05-24T11:25:31.908Z,24.70
2018-05-24T11:27:59.408Z,24.70
2018-05-24T11:30:27.705Z,25.10
2018-05-24T11:32:56.193Z,25.10
2018-05-24T11:35:23.691Z,25.20
2018-05-24T11:37:51.229Z,25.20
2018-05-24T11:40:18.759Z,25.10
2018-05-24T11:42:47.039Z,24.60
2018-05-24T11:45:15.457Z,24.60
2018-05-24T11:47:43.053Z,24.60
2018-05-24T11:50:10.571Z,24.70
2018-05-24T11:52:39.280Z,24.70
2018-05-24T11:55:07.582Z,24.80
2018-05-24T11:57:35.100Z,24.80
2018-05-24T12:00:02.636Z,24.80
2018-05-24T12:02:30.210Z,24.80
2018-05-24T12:04:58.492Z,24.90
2018-05-24T12:07:26.785Z,24.70
2018-05-24T12:09:55.414Z,24.80
2018-05-24T12:12:24.471Z,24.70
2018-05-24T12:14:52.152Z,24.80
2018-05-24T12:17:19.640Z,24.80
2018-05-24T12:19:47.182Z,24.70
2018-05-24T12:22:14.732Z,24.60
2018-05-24T12:24:43.014Z,24.80
2018-05-24T12:27:11.277Z,24.90
2018-05-24T12:29:39.589Z,25.00
2018-05-24T12:32:07.095Z,24.90
2018-05-24T12:34:34.703Z,25.00
2018-05-24T12:37:02.231Z,25.00
2018-05-24T12:39:30.067Z,25.00
2018-05-24T12:41:57.615Z,24.90
2018-05-24T12:44:25.141Z,24.80
2018-05-24T12:46:53.416Z,24.90
2018-05-24T12:49:20.995Z,24.80
2018-05-24T12:51:49.489Z,24.90
2018-05-24T12:54:18.930Z,24.80
2018-05-24T12:56:46.428Z,24.80
2018-05-24T12:59:14.287Z,24.80
2018-05-24T13:01:41.780Z,24.90
2018-05-24T13:04:10.170Z,25.00
2018-05-24T13:06:38.438Z,24.90
2018-05-24T13:09:05.808Z,24.90
2018-05-24T13:11:34.567Z,25.00
2018-05-24T13:14:02.135Z,25.00
2018-05-24T13:16:29.619Z,25.10
2018-05-24T13:18:58.631Z,25.10
2018-05-24T13:21:26.937Z,25.20
2018-05-24T13:23:55.123Z,25.20
2018-05-24T13:26:22.753Z,25.30
2018-05-24T13:28:51.209Z,25.40
2018-05-24T13:31:20.273Z,25.50
2018-05-24T13:33:48.071Z,25.40
2018-05-24T13:36:15.624Z,25.60
2018-05-24T13:38:43.318Z,25.60
2018-05-24T13:41:11.652Z,25.60
2018-05-24T13:43:39.160Z,25.60
2018-05-24T13:46:06.686Z,25.70
2018-05-24T13:48:34.242Z,25.70
2018-05-24T13:51:01.851Z,25.60
2018-05-24T13:53:30.195Z,25.50
2018-05-24T13:55:57.723Z,25.50
2018-05-24T13:58:26.068Z,25.60
2018-05-24T14:00:55.105Z,25.60
2018-05-24T14:03:23.430Z,25.70
2018-05-24T14:05:50.940Z,25.70
2018-05-24T14:08:18.435Z,25.60
2018-05-24T14:10:46.016Z,25.50
2018-05-24T14:13:13.553Z,25.50
2018-05-24T14:15:41.169Z,25.60
2018-05-24T14:18:08.686Z,25.60
2018-05-24T14:20:36.981Z,25.50
2018-05-24T14:23:04.534Z,25.50
2018-05-24T14:25:32.108Z,25.50
2018-05-24T14:27:59.622Z,25.60
2018-05-24T14:30:28.737Z,25.70
2018-05-24T14:32:56.991Z,25.70
2018-05-24T14:35:24.502Z,25.60
2018-05-24T14:37:52.753Z,25.60
2018-05-24T14:40:20.360Z,25.60
2018-05-24T14:42:47.862Z,25.40
2018-05-24T14:45:15.786Z,25.30
2018-05-24T14:47:43.631Z,25.30
2018-05-24T14:50:11.154Z,25.30
2018-05-24T14:52:38.634Z,25.40
2018-05-24T14:55:06.274Z,25.50
2018-05-24T14:57:33.870Z,25.50
2018-05-24T15:00:01.401Z,25.60
2018-05-24T15:02:28.970Z,25.60
2018-05-24T15:04:56.493Z,25.60
2018-05-24T15:07:24.024Z,25.40
2018-05-24T15:09:51.664Z,25.40
2018-05-24T15:12:19.156Z,25.50
2018-05-24T15:14:46.770Z,25.60
2018-05-24T15:17:14.312Z,25.50
2018-05-24T15:19:42.620Z,25.30
2018-05-24T15:22:10.242Z,25.30
2018-05-24T15:24:38.566Z,25.10
2018-05-24T15:27:06.071Z,25.10
2018-05-24T15:29:34.928Z,25.10
2018-05-24T15:32:04.019Z,24.90
2018-05-24T15:34:31.598Z,25.00
2018-05-24T15:36:59.117Z,25.00
2018-05-24T15:39:26.773Z,25.00
2018-05-24T15:41:54.286Z,24.90
2018-05-24T15:44:21.784Z,24.90
2018-05-24T15:46:49.428Z,24.90
2018-05-24T15:49:17.558Z,24.80
2018-05-24T15:51:45.840Z,24.70
2018-05-24T15:54:14.123Z,24.70
2018-05-24T15:56:42.405Z,24.70
2018-05-24T15:59:10.711Z,24.70
2018-05-24T16:01:38.223Z,24.70
2018-05-24T16:04:06.559Z,24.70
2018-05-24T16:06:34.636Z,24.70
2018-05-24T16:09:02.133Z,24.60
2018-05-24T16:11:29.627Z,24.60
2018-05-24T16:13:58.670Z,24.50
2018-05-24T16:16:26.224Z,24.50
2018-05-24T16:18:53.743Z,24.50
2018-05-24T16:21:23.023Z,24.50
2018-05-24T16:23:52.392Z,24.50
2018-05-24T16:26:20.051Z,24.60
2018-05-24T16:28:48.401Z,24.70
2018-05-24T16:31:16.737Z,24.70
2018-05-24T16:33:44.333Z,24.60
2018-05-24T16:36:11.962Z,24.60
2018-05-24T16:38:39.460Z,24.50
2018-05-24T16:41:07.147Z,24.40
2018-05-24T16:43:34.659Z,24.40
2018-05-24T16:46:02.301Z,24.30
2018-05-24T16:48:30.624Z,24.30
2018-05-24T16:50:58.311Z,24.30
2018-05-24T16:53:27.530Z,24.30
2018-05-24T16:55:55.078Z,24.30
2018-05-24T16:58:22.600Z,24.30
2018-05-24T17:00:50.142Z,24.30
2018-05-24T17:03:18.435Z,24.20
2018-05-24T17:05:47.534Z,24.20
2018-05-24T17:08:15.055Z,24.20
2018-05-24T17:10:42.989Z,24.10
2018-05-24T17:13:10.514Z,24.10
2018-05-24T17:15:38.829Z,24.00
2018-05-24T17:18:06.354Z,24.00
2018-05-24T17:20:34.669Z,23.90
2018-05-24T17:23:02.188Z,23.90
2018-05-24T17:25:29.716Z,23.80
2018-05-24T17:27:57.238Z,23.80
2018-05-24T17:30:25.512Z,23.80
2018-05-24T17:32:53.813Z,23.70
2018-05-24T17:35:21.803Z,23.70
2018-05-24T17:37:49.301Z,23.70
2018-05-24T17:40:16.806Z,23.60
2018-05-24T17:42:45.083Z,23.60
2018-05-24T17:45:13.373Z,23.50
2018-05-24T17:47:41.160Z,23.50
2018-05-24T17:50:08.680Z,23.50
2018-05-24T17:52:36.965Z,23.40
2018-05-24T17:55:04.469Z,23.40
2018-05-24T17:57:32.687Z,23.40
2018-05-24T18:00:00.787Z,23.40
2018-05-24T18:02:29.077Z,23.30
2018-05-24T18:04:57.352Z,23.30
2018-05-24T18:07:25.669Z,23.30
2018-05-24T18:09:53.317Z,23.30
2018-05-24T18:12:21.257Z,23.20
2018-05-24T18:14:49.000Z,23.20
2018-05-24T18:17:16.577Z,23.10
2018-05-24T18:19:44.276Z,23.00
2018-05-24T18:22:12.657Z,22.90
2018-05-24T18:24:41.736Z,22.90
2018-05-24T18:27:09.249Z,22.90
2018-05-24T18:29:36.846Z,22.90
2018-05-24T18:32:05.092Z,22.80
2018-05-24T18:34:32.831Z,22.70
2018-05-24T18:37:01.190Z,22.70
2018-05-24T18:39:29.892Z,22.60
2018-05-24T18:41:57.733Z,22.60
2018-05-24T18:44:26.036Z,22.50
2018-05-24T18:46:54.318Z,22.40
2018-05-24T18:49:22.656Z,22.40
2018-05-24T18:51:50.179Z,22.30
2018-05-24T18:54:18.976Z,22.20
2018-05-24T18:56:47.297Z,22.20
2018-05-24T18:59:14.814Z,22.20
2018-05-24T19:01:43.143Z,22.10
2018-05-24T19:04:11.762Z,22.10
2018-05-24T19:06:39.604Z,22.10
2018-05-24T19:09:07.166Z,22.10
2018-05-24T19:11:34.726Z,22.00
2018-05-24T19:14:02.223Z,21.90
2018-05-24T19:16:29.746Z,21.90
2018-05-24T19:18:57.297Z,21.90
2018-05-24T19:21:25.680Z,21.80
2018-05-24T19:23:53.258Z,21.80
2018-05-24T19:26:20.828Z,21.70
2018-05-24T19:28:48.331Z,21.70
2018-05-24T19:31:16.201Z,21.60
2018-05-24T19:33:43.858Z,21.50
2018-05-24T19:36:11.352Z,21.50
2018-05-24T19:38:39.680Z,21.40
2018-05-24T19:41:08.050Z,21.30
2018-05-24T19:43:35.661Z,21.30
2018-05-24T19:46:05.111Z,21.30
2018-05-24T19:48:33.425Z,21.20
2018-05-24T19:51:00.924Z,21.20
2018-05-24T19:53:28.543Z,21.20
2018-05-24T19:55:56.362Z,21.20
2018-05-24T19:58:24.640Z,21.10
2018-05-24T20:00:52.227Z,21.10
2018-05-24T20:03:20.643Z,21.00
2018-05-24T20:05:48.137Z,21.00
2018-05-24T20:08:15.662Z,21.00
2018-05-24T20:10:43.163Z,21.00
2018-05-24T20:13:10.661Z,21.00
2018-05-24T20:15:41.294Z,20.90
2018-05-24T20:18:14.537Z,20.90
2018-05-24T20:20:42.181Z,20.90
2018-05-24T20:23:09.959Z,20.80
2018-05-24T20:25:38.030Z,20.80
2018-05-24T20:28:05.576Z,20.70
2018-05-24T20:30:33.877Z,20.60
2018-05-24T20:33:01.545Z,20.60
2018-05-24T20:35:29.075Z,20.60
2018-05-24T20:37:58.368Z,20.40
2018-05-24T20:40:29.420Z,20.40
2018-05-24T20:42:58.392Z,20.40
2018-05-24T20:45:26.575Z,20.30
2018-05-24T20:47:54.084Z,20.30
2018-05-24T20:50:21.576Z,20.20
2018-05-24T20:52:50.326Z,20.20
2018-05-24T20:55:19.012Z,20.20
2018-05-24T20:57:47.308Z,20.20
2018-05-24T21:00:15.684Z,20.10
2018-05-24T21:02:43.473Z,20.10
2018-05-24T21:05:10.978Z,20.00
2018-05-24T21:07:39.313Z,20.00
2018-05-24T21:10:07.541Z,19.90
2018-05-24T21:12:35.713Z,19.90
2018-05-24T21:15:03.202Z,19.90
2018-05-24T21:17:31.936Z,19.80
2018-05-24T21:19:59.466Z,19.80
2018-05-24T21:22:29.036Z,19.70
2018-05-24T21:24:56.542Z,19.70
2018-05-24T21:27:25.202Z,19.60
2018-05-24T21:29:52.716Z,19.60
2018-05-24T21:32:20.204Z,19.60
2018-05-24T21:34:47.739Z,19.50
2018-05-24T21:37:15.307Z,19.50
2018-05-24T21:39:44.762Z,19.50
2018-05-24T21:42:14.697Z,19.50
2018-05-24T21:44:42.978Z,19.50
2018-05-24T21:47:10.491Z,19.50
2018-05-24T21:49:38.056Z,19.50
2018-05-24T21:52:06.299Z,19.40
2018-05-24T21:54:33.973Z,19.40
2018-05-24T21:57:02.323Z,19.40
2018-05-24T21:59:29.937Z,19.40
2018-05-24T22:01:57.458Z,19.30
2018-05-24T22:04:25.363Z,19.30
2018-05-24T22:06:54.342Z,19.30
2018-05-24T22:09:22.932Z,19.30
2018-05-24T22:11:51.238Z,19.30
2018-05-24T22:14:19.503Z,19.30
2018-05-24T22:16:47.768Z,19.30
2018-05-24T22:19:16.903Z,19.20
2018-05-24T22:21:44.427Z,19.20
2018-05-24T22:24:12.741Z,19.20
2018-05-24T22:26:40.233Z,19.20
2018-05-24T22:29:07.756Z,19.20
2018-05-24T22:31:36.141Z,19.10
2018-05-24T22:34:04.412Z,19.00
2018-05-24T22:36:32.686Z,19.00
2018-05-24T22:39:00.184Z,19.00
2018-05-24T22:41:27.794Z,19.00
2018-05-24T22:43:55.768Z,18.90
2018-05-24T22:46:23.251Z,18.90
2018-05-24T22:48:51.581Z,18.80
2018-05-24T22:51:19.092Z,18.80
2018-05-24T22:53:47.368Z,18.80
2018-05-24T22:56:14.878Z,18.80
2018-05-24T22:58:42.381Z,18.80
2018-05-24T23:01:09.875Z,18.70
2018-05-24T23:03:38.152Z,18.70
2018-05-24T23:06:06.437Z,18.70
2018-05-24T23:08:35.311Z,18.70
2018-05-24T23:11:02.805Z,18.70
2018-05-24T23:13:30.352Z,18.70
2018-05-24T23:15:58.625Z,18.60
2018-05-24T23:18:26.127Z,18.60
2018-05-24T23:20:53.693Z,18.60
2018-05-24T23:23:22.463Z,18.60
2018-05-24T23:25:50.740Z,18.60
2018-05-24T23:28:20.050Z,18.60
2018-05-24T23:30:48.534Z,18.60
2018-05-24T23:33:16.789Z,18.50
2018-05-24T23:35:44.311Z,18.50
2018-05-24T23:38:11.804Z,18.50
2018-05-24T23:40:40.114Z,18.40
2018-05-24T23:43:08.399Z,18.30
2018-05-24T23:45:38.098Z,18.30
2018-05-24T23:48:06.370Z,18.30
2018-05-24T23:50:33.962Z,18.30
2018-05-24T23:53:02.240Z,18.20
2018-05-24T23:55:30.523Z,18.20
2018-05-24T23:57:58.032Z,18.20
